Time;durP1;ratioP1;P1;durP2;ratioP2;P2;SDS_P1;SDS_P2;PMS_P1;PMS_P2;Temp;Humidity;BMP_temperature;BMP_pressure;BME280_temperature;BME280_humidity;BME280_pressure;Samples;Min_cycle;Max_cycle;Signal;HPM_P1;HPM_P2
2023/06/14 00:00:04;;;;;;;22.57;21.27;;;17.50;39.70;;;;;;2615309;54;20391;-76
2023/06/14 00:05:52;;;;;;;21.57;20.07;;;17.60;37.70;;;;;;2614995;54;20395;-77
2023/06/14 00:11:41;;;;;;;22.40;20.90;;;17.60;37.10;;;;;;2615302;54;20161;-76
2023/06/14 00:17:31;;;;;;;22.97;21.50;;;17.50;37.00;;;;;;2614302;54;20414;-77
2023/06/14 00:23:19;;;;;;;23.00;21.70;;;17.60;33.90;;;;;;2615349;46;21347;-76
2023/06/14 00:29:07;;;;;;;23.23;21.90;;;17.60;31.50;;;;;;2615266;54;20174;-76
2023/06/14 00:35:32;;;;;;;21.87;20.30;;;17.50;32.40;;;;;;2614576;39;20570;-76
2023/06/14 00:38:20;;;;;;;22.20;20.90;;;17.50;31.30;;;;;;2614498;47;20969;-77
2023/06/14 00:44:08;;;;;;;21.83;20.63;;;17.30;32.00;;;;;;2615196;54;20407;-76
2023/06/14 00:49:56;;;;;;;23.27;21.60;;;17.30;33.10;;;;;;2615254;54;20162;-76
2023/06/14 00:55:44;;;;;;;22.20;20.87;;;17.20;32.80;;;;;;2614915;54;20416;-76
2023/06/14 01:01:34;;;;;;;20.63;19.13;;;17.20;29.50;;;;;;2615703;39;20462;-76
2023/06/14 01:07:44;;;;;;;21.50;20.10;;;17.30;27.70;;;;;;2614062;54;20399;-76
2023/06/14 01:13:38;;;;;;;21.40;20.20;;;17.30;26.40;;;;;;2613657;54;20392;-76
2023/06/14 01:19:28;;;;;;;20.17;18.87;;;17.10;26.70;;;;;;2613573;54;20374;-76
2023/06/14 01:25:16;;;;;;;19.83;18.70;;;17.10;24.50;;;;;;2613658;54;20391;-76
2023/06/14 01:31:05;;;;;;;21.77;20.53;;;17.00;26.10;;;;;;2614135;54;20415;-76
2023/06/14 01:40:19;;;;;;;20.67;19.20;;;16.90;28.10;;;;;;2614015;54;20427;-76
2023/06/14 01:46:08;;;;;;;20.70;19.50;;;16.60;31.80;;;;;;2614106;39;20926;-75
2023/06/14 01:51:56;;;;;;;21.60;20.20;;;16.60;32.00;;;;;;2614383;54;20413;-76
2023/06/14 01:57:44;;;;;;;21.60;20.40;;;16.50;32.00;;;;;;2613812;39;20552;-77
2023/06/14 02:03:32;;;;;;;21.70;20.40;;;16.40;35.40;;;;;;2614056;54;20422;-76
2023/06/14 02:09:20;;;;;;;24.73;22.83;;;16.40;33.90;;;;;;2613766;54;20512;-76
2023/06/14 02:15:09;;;;;;;21.43;19.90;;;16.30;36.00;;;;;;2614480;54;20652;-74
2023/06/14 02:20:57;;;;;;;20.60;19.30;;;16.20;37.10;;;;;;2614570;54;20384;-75
2023/06/14 02:26:44;;;;;;;20.13;18.80;;;16.10;37.50;;;;;;2614613;54;21115;-76
2023/06/14 02:32:35;;;;;;;20.90;19.80;;;16.00;39.60;;;;;;2614648;54;20123;-75
2023/06/14 02:35:37;;;;;;;20.43;19.20;;;16.00;42.80;;;;;;2614193;46;20513;-75
2023/06/14 02:38:03;;;;;;;19.93;18.83;;;15.90;42.00;;;;;;2614509;54;20995;-76
2023/06/14 02:43:50;;;;;;;19.53;18.23;;;15.90;43.00;;;;;;2614651;54;20131;-75
2023/06/14 02:49:38;;;;;;;19.80;18.43;;;15.90;41.10;;;;;;2614528;54;20174;-75
2023/06/14 02:55:26;;;;;;;20.10;18.90;;;15.80;43.30;;;;;;2613657;54;20150;-76
2023/06/14 03:01:14;;;;;;;20.37;19.07;;;15.70;45.50;;;;;;2614798;54;20254;-76
2023/06/14 03:07:02;;;;;;;19.77;18.67;;;15.70;43.20;;;;;;2614953;54;20454;-76
2023/06/14 03:12:51;;;;;;;18.83;17.87;;;15.60;46.40;;;;;;2614592;54;21007;-77
2023/06/14 03:18:39;;;;;;;19.23;17.70;;;15.70;44.70;;;;;;2614452;54;20362;-76
2023/06/14 03:24:27;;;;;;;19.60;18.47;;;15.60;46.90;;;;;;2614206;47;20155;-76
2023/06/14 03:30:14;;;;;;;21.10;19.90;;;15.60;46.50;;;;;;2614523;54;20138;-76
2023/06/14 03:40:06;;;;;;;19.63;18.33;;;15.50;50.60;;;;;;2614399;54;20407;-77
2023/06/14 03:45:54;;;;;;;19.87;18.67;;;15.50;51.40;;;;;;2614023;54;20374;-75
2023/06/14 03:51:41;;;;;;;20.90;19.47;;;15.50;53.30;;;;;;2614382;54;20126;-77
2023/06/14 03:57:30;;;;;;;19.10;18.00;;;15.50;54.20;;;;;;2614640;39;20823;-76
2023/06/14 04:03:19;;;;;;;20.40;19.40;;;15.60;50.10;;;;;;2613716;54;20387;-77
2023/06/14 04:09:07;;;;;;;18.10;16.73;;;15.70;47.00;;;;;;2614395;54;20555;-77
2023/06/14 04:14:55;;;;;;;19.80;18.57;;;15.90;40.20;;;;;;2613428;54;20122;-77
2023/06/14 04:20:43;;;;;;;20.10;18.87;;;16.00;38.00;;;;;;2614787;54;20415;-76
2023/06/14 04:26:33;;;;;;;21.30;20.17;;;16.10;36.50;;;;;;2614919;54;20411;-76
2023/06/14 04:32:21;;;;;;;20.27;18.87;;;16.30;34.50;;;;;;2614124;54;20446;-76
2023/06/14 04:35:38;;;;;;;20.37;18.33;;;16.40;34.10;;;;;;2613266;54;20420;-77
2023/06/14 04:38:04;;;;;;;19.53;18.33;;;16.50;33.20;;;;;;2613199;47;20439;-77
2023/06/14 04:43:53;;;;;;;20.53;19.43;;;16.80;29.10;;;;;;2613430;54;20441;-77
2023/06/14 04:49:40;;;;;;;20.83;19.23;;;17.20;26.30;;;;;;2613823;54;20451;-77
2023/06/14 04:55:28;;;;;;;20.50;19.10;;;17.70;22.10;;;;;;2614429;54;20649;-77
2023/06/14 05:01:16;;;;;;;20.80;19.70;;;18.10;20.70;;;;;;2613685;54;20134;-77
2023/06/14 05:07:04;;;;;;;20.13;19.13;;;18.30;19.50;;;;;;2614648;54;20144;-78
2023/06/14 05:12:52;;;;;;;19.23;18.23;;;18.50;15.60;;;;;;2614621;54;20712;-78
2023/06/14 05:18:41;;;;;;;20.83;19.77;;;19.00;13.60;;;;;;2614501;54;20427;-74
2023/06/14 05:24:32;;;;;;;21.20;20.10;;;19.30;9.70;;;;;;2612674;54;20383;-74
2023/06/14 05:30:20;;;;;;;20.33;19.23;;;19.90;8.80;;;;;;2614315;54;20399;-74
2023/06/14 05:46:33;;;;;;;21.33;20.23;;;19.70;9.40;;;;;;2613433;54;20395;-76
2023/06/14 05:52:20;;;;;;;21.17;19.70;;;19.70;9.00;;;;;;2612199;54;20179;-74
2023/06/14 05:58:07;;;;;;;18.50;17.40;;;20.10;6.90;;;;;;2612053;54;20134;-74
2023/06/14 06:03:55;;;;;;;20.10;19.10;;;20.70;5.00;;;;;;2613169;54;20166;-74
2023/06/14 06:09:43;;;;;;;20.87;19.47;;;20.80;3.70;;;;;;2612379;54;20129;-74
2023/06/14 06:15:30;;;;;;;21.57;20.27;;;20.80;3.50;;;;;;2614453;54;20402;-73
2023/06/14 06:21:18;;;;;;;18.83;17.63;;;21.60;2.10;;;;;;2614408;46;20149;-74
2023/06/14 06:27:08;;;;;;;19.07;18.07;;;21.70;1.00;;;;;;2614313;54;21411;-74
2023/06/14 06:32:55;;;;;;;18.60;17.60;;;21.80;1.00;;;;;;2615344;54;20399;-74
2023/06/14 06:35:38;;;;;;;18.80;17.63;;;22.00;1.00;;;;;;2614916;54;20422;-74
2023/06/14 06:38:04;;;;;;;18.07;16.97;;;21.80;1.00;;;;;;2615291;54;20142;-74
2023/06/14 06:43:52;;;;;;;18.70;17.43;;;21.50;1.00;;;;;;2615676;54;20203;-74
2023/06/14 06:49:39;;;;;;;18.33;17.23;;;21.30;1.00;;;;;;2614588;54;20122;-74
2023/06/14 06:55:27;;;;;;;18.80;18.00;;;21.90;1.00;;;;;;2614316;39;20239;-74
2023/06/14 07:01:15;;;;;;;18.13;17.23;;;21.60;1.00;;;;;;2614469;54;20239;-74
2023/06/14 07:07:03;;;;;;;19.47;18.37;;;21.90;1.00;;;;;;2614599;54;20391;-74
2023/06/14 07:12:51;;;;;;;18.30;17.40;;;22.00;1.00;;;;;;2615252;54;20187;-73
2023/06/14 07:18:39;;;;;;;18.07;16.83;;;22.50;1.00;;;;;;2613948;39;20747;-74
2023/06/14 07:24:28;;;;;;;17.50;16.70;;;22.80;1.00;;;;;;2615127;54;20151;-74
2023/06/14 07:30:15;;;;;;;16.73;16.00;;;23.20;1.00;;;;;;2615430;54;20395;-74
2023/06/14 07:33:19;;;;;;;16.90;16.20;;;23.20;1.00;;;;;;2614061;54;20415;-74
2023/06/14 07:42:29;;;;;;;17.47;16.67;;;22.60;1.00;;;;;;2614606;54;20380;-74
2023/06/14 07:48:16;;;;;;;17.03;16.33;;;23.50;1.00;;;;;;2615417;54;20140;-74
2023/06/14 07:54:07;;;;;;;17.23;16.20;;;23.20;1.00;;;;;;2614763;54;20129;-74
2023/06/14 07:59:54;;;;;;;17.93;17.03;;;23.00;1.00;;;;;;2615183;54;20419;-74
2023/06/14 08:05:42;;;;;;;17.80;17.00;;;23.00;1.00;;;;;;2614852;54;20121;-75
2023/06/14 08:11:29;;;;;;;17.13;16.23;;;23.50;1.00;;;;;;2615091;54;20140;-74
2023/06/14 08:17:17;;;;;;;17.50;16.70;;;22.90;1.00;;;;;;2614931;54;20130;-74
2023/06/14 08:23:05;;;;;;;17.63;16.73;;;23.20;1.00;;;;;;2615687;54;20177;-74
2023/06/14 08:28:52;;;;;;;15.33;14.73;;;23.20;1.00;;;;;;2615316;54;20137;-73
2023/06/14 08:34:40;;;;;;;17.57;16.50;;;23.30;1.00;;;;;;2614966;54;20267;-73
2023/06/14 08:40:30;;;;;;;16.47;15.77;;;23.40;1.00;;;;;;2614859;54;20184;-74
2023/06/14 08:43:54;;;;;;;16.47;15.77;;;23.30;1.00;;;;;;2615164;54;20527;-74
2023/06/14 08:49:47;;;;;;;16.90;16.10;;;23.70;1.00;;;;;;2614973;39;20779;-73
2023/06/14 08:55:38;;;;;;;16.77;16.00;;;23.90;1.00;;;;;;2614340;54;20435;-74
2023/06/14 09:01:26;;;;;;;17.53;16.53;;;23.80;1.00;;;;;;2614923;46;20419;-75
2023/06/14 09:07:14;;;;;;;16.60;15.80;;;24.10;1.00;;;;;;2614836;54;20423;-74
2023/06/14 09:13:02;;;;;;;16.30;15.60;;;24.60;1.00;;;;;;2614731;54;20416;-74
2023/06/14 09:18:50;;;;;;;15.87;15.17;;;24.90;1.00;;;;;;2614948;54;20394;-73
2023/06/14 09:24:38;;;;;;;15.87;15.10;;;24.10;1.00;;;;;;2614469;54;20499;-74
2023/06/14 09:30:25;;;;;;;17.13;16.00;;;24.50;1.00;;;;;;2614850;54;20122;-74
2023/06/14 09:36:21;;;;;;;15.67;14.97;;;24.50;1.00;;;;;;2614652;54;20142;-73
2023/06/14 09:39:25;;;;;;;15.80;15.00;;;25.00;1.00;;;;;;2613198;54;20438;-75
2023/06/14 09:41:51;;;;;;;16.27;15.30;;;24.90;1.00;;;;;;2614597;54;20450;-73
2023/06/14 09:47:39;;;;;;;15.40;14.80;;;25.00;1.00;;;;;;2613706;54;20157;-73
2023/06/14 09:53:29;;;;;;;16.50;15.80;;;24.80;1.00;;;;;;2614094;54;20414;-75
2023/06/14 09:59:21;;;;;;;17.00;16.30;;;24.50;1.00;;;;;;2614998;54;20407;-73
2023/06/14 10:05:12;;;;;;;16.87;16.10;;;24.50;1.00;;;;;;2614799;54;20383;-73
2023/06/14 10:11:00;;;;;;;16.80;16.00;;;24.90;1.00;;;;;;2613519;54;20399;-74
2023/06/14 10:23:28;;;;;;;17.17;16.27;;;25.00;1.00;;;;;;2615089;54;20383;-75
2023/06/14 10:29:16;;;;;;;17.27;16.43;;;25.00;1.00;;;;;;2613838;54;20398;-75
2023/06/14 10:35:08;;;;;;;17.73;16.93;;;25.20;1.00;;;;;;2613849;54;20130;-74
2023/06/14 10:44:21;;;;;;;16.60;15.80;;;24.50;1.00;;;;;;2614830;54;20419;-75
2023/06/14 10:50:10;;;;;;;16.90;16.10;;;25.10;1.00;;;;;;2614719;54;20516;-75
2023/06/14 11:15:37;;;;;;;17.27;16.47;;;25.40;1.00;;;;;;2613651;54;20395;-75
2023/06/14 11:21:30;;;;;;;16.63;15.93;;;25.20;1.00;;;;;;2615307;54;20387;-75
2023/06/14 11:27:18;;;;;;;17.33;16.43;;;25.20;1.00;;;;;;2614956;54;20443;-75
2023/06/14 11:33:10;;;;;;;16.60;15.80;;;25.10;1.00;;;;;;2614171;54;20134;-76
2023/06/14 11:39:03;;;;;;;16.63;15.87;;;26.20;1.00;;;;;;2615212;54;20925;-75
2023/06/14 11:44:51;;;;;;;16.97;16.07;;;25.80;1.00;;;;;;2615363;54;20415;-76
2023/06/14 11:50:39;;;;;;;20.63;17.10;;;25.30;1.00;;;;;;2615589;54;20430;-75
2023/06/14 11:56:26;;;;;;;18.03;17.23;;;25.90;1.00;;;;;;2615458;54;20171;-74
2023/06/14 12:02:15;;;;;;;18.23;17.10;;;26.20;1.00;;;;;;2615028;54;20243;-74
2023/06/14 12:08:05;;;;;;;17.77;16.97;;;25.80;1.00;;;;;;2614286;54;20391;-73
2023/06/14 12:13:53;;;;;;;18.40;17.10;;;26.20;1.00;;;;;;2615187;54;20399;-76
2023/06/14 12:19:43;;;;;;;19.37;18.10;;;26.60;1.00;;;;;;2614912;54;20235;-74
2023/06/14 12:25:36;;;;;;;19.10;17.77;;;26.50;1.00;;;;;;2614113;54;20388;-74
2023/06/14 12:31:24;;;;;;;15.63;14.93;;;27.00;1.00;;;;;;2615517;54;20439;-74
2023/06/14 12:37:12;;;;;;;16.60;15.90;;;27.10;1.00;;;;;;2615192;54;20157;-74
2023/06/14 12:46:22;;;;;;;16.33;15.53;;;26.40;1.00;;;;;;2615149;54;20406;-75
2023/06/14 12:52:09;;;;;;;17.40;16.60;;;26.40;1.00;;;;;;2615570;39;20528;-75
2023/06/14 12:57:57;;;;;;;17.27;16.47;;;26.90;1.00;;;;;;2614863;54;20264;-75
2023/06/14 13:03:47;;;;;;;17.53;16.40;;;26.80;1.00;;;;;;2613863;54;20742;-75
2023/06/14 13:09:35;;;;;;;16.30;15.60;;;27.00;1.00;;;;;;2614723;54;20399;-74
2023/06/14 13:15:22;;;;;;;17.00;16.03;;;26.30;1.00;;;;;;2615120;54;20132;-73
2023/06/14 13:21:10;;;;;;;17.53;16.37;;;26.80;1.00;;;;;;2614501;54;20739;-75
2023/06/14 13:26:58;;;;;;;17.00;15.77;;;26.30;1.00;;;;;;2614853;54;20127;-74
2023/06/14 13:32:47;;;;;;;16.77;15.87;;;26.40;1.00;;;;;;2614163;54;20142;-74
2023/06/14 13:35:52;;;;;;;16.43;15.40;;;26.70;1.00;;;;;;2614801;54;20407;-74
2023/06/14 13:38:18;;;;;;;15.83;14.97;;;26.50;1.00;;;;;;2614834;39;20813;-74
2023/06/14 13:44:06;;;;;;;16.17;15.37;;;26.40;1.00;;;;;;2614794;54;21054;-73
2023/06/14 13:49:54;;;;;;;16.20;15.40;;;26.90;1.00;;;;;;2615047;54;20150;-75
2023/06/14 13:55:41;;;;;;;15.60;15.00;;;26.70;1.00;;;;;;2612669;54;20256;-75
2023/06/14 14:01:29;;;;;;;16.43;15.70;;;26.90;1.00;;;;;;2614648;54;20122;-74
2023/06/14 14:07:18;;;;;;;16.33;15.63;;;26.60;1.00;;;;;;2614807;54;20134;-74
2023/06/14 14:13:05;;;;;;;16.17;15.50;;;26.30;1.00;;;;;;2613656;54;20452;-74
2023/06/14 14:18:53;;;;;;;16.00;15.20;;;26.90;1.00;;;;;;2615180;39;20617;-75
2023/06/14 14:24:41;;;;;;;16.80;15.97;;;27.60;1.00;;;;;;2614622;39;20785;-75
2023/06/14 14:30:29;;;;;;;16.77;15.60;;;25.50;1.00;;;;;;2614553;54;20142;-74
2023/06/14 14:36:17;;;;;;;16.57;15.87;;;26.40;1.00;;;;;;2615053;54;20262;-73
2023/06/14 14:48:48;;;;;;;17.10;15.90;;;26.90;1.00;;;;;;2614565;54;20725;-74
2023/06/14 14:54:36;;;;;;;15.40;14.70;;;26.50;1.00;;;;;;2615433;54;20640;-74
2023/06/14 15:00:24;;;;;;;16.60;15.80;;;26.40;1.00;;;;;;2614584;54;20158;-74
2023/06/14 15:06:12;;;;;;;16.80;16.10;;;26.60;1.00;;;;;;2616034;39;21003;-74
2023/06/14 15:12:00;;;;;;;16.80;16.00;;;26.40;1.00;;;;;;2614878;54;20118;-74
2023/06/14 15:17:48;;;;;;;16.47;15.77;;;25.90;1.00;;;;;;2614515;54;20138;-74
2023/06/14 15:23:36;;;;;;;17.27;16.47;;;26.60;1.00;;;;;;2615133;54;20135;-74
2023/06/14 15:29:23;;;;;;;16.47;15.77;;;26.40;1.00;;;;;;2615512;54;20150;-74
2023/06/14 15:35:14;;;;;;;17.17;16.27;;;26.10;1.00;;;;;;2614879;54;20158;-74
2023/06/14 15:41:01;;;;;;;16.40;15.80;;;26.30;1.00;;;;;;2614513;54;20905;-73
2023/06/14 15:46:49;;;;;;;16.70;16.00;;;26.40;1.00;;;;;;2615131;54;20131;-74
2023/06/14 15:52:37;;;;;;;17.03;16.33;;;26.30;1.00;;;;;;2615233;54;20114;-73
2023/06/14 15:58:25;;;;;;;17.73;16.70;;;26.40;1.00;;;;;;2615248;54;20407;-72
2023/06/14 16:04:12;;;;;;;17.40;16.60;;;26.10;1.00;;;;;;2614994;54;20123;-73
2023/06/14 16:10:00;;;;;;;17.67;16.97;;;26.20;1.00;;;;;;2615317;54;20145;-74
2023/06/14 16:15:49;;;;;;;16.97;16.17;;;27.30;1.00;;;;;;2614053;54;20137;-74
2023/06/14 16:21:37;;;;;;;17.37;15.97;;;26.80;1.00;;;;;;2614442;54;20411;-74
2023/06/14 16:27:25;;;;;;;18.10;17.20;;;27.80;1.00;;;;;;2615538;54;20138;-74
2023/06/14 16:33:12;;;;;;;17.97;16.90;;;25.70;1.00;;;;;;2615762;46;20174;-74
2023/06/14 16:39:00;;;;;;;17.33;16.50;;;25.70;1.00;;;;;;2613637;54;20134;-74
2023/06/14 16:41:56;;;;;;;17.30;16.50;;;25.50;1.00;;;;;;2614623;54;20497;-73
2023/06/14 16:44:22;;;;;;;17.33;16.53;;;26.00;1.00;;;;;;2614427;54;20158;-74
2023/06/14 16:50:10;;;;;;;18.90;17.90;;;25.40;1.00;;;;;;2614443;54;20121;-73
2023/06/14 16:55:58;;;;;;;17.27;16.40;;;25.70;1.00;;;;;;2615285;54;20210;-74
2023/06/14 17:01:46;;;;;;;18.60;17.80;;;25.70;1.00;;;;;;2612865;54;20133;-75
2023/06/14 17:07:33;;;;;;;17.73;17.03;;;25.30;1.00;;;;;;2613321;54;20250;-74
2023/06/14 17:13:21;;;;;;;17.63;16.83;;;25.20;1.00;;;;;;2614752;54;20656;-74
2023/06/14 17:19:09;;;;;;;17.67;16.77;;;25.50;1.00;;;;;;2613634;54;20362;-74
2023/06/14 17:24:57;;;;;;;18.10;17.00;;;25.20;1.00;;;;;;2614970;54;20247;-74
2023/06/14 17:30:44;;;;;;;18.10;17.30;;;24.70;1.00;;;;;;2615123;54;20121;-74
2023/06/14 17:36:32;;;;;;;19.10;18.20;;;24.50;1.00;;;;;;2614106;54;20139;-74
2023/06/14 17:46:26;;;;;;;18.67;17.80;;;24.30;1.00;;;;;;2615291;54;20390;-75
2023/06/14 17:52:14;;;;;;;18.73;17.83;;;23.80;1.00;;;;;;2614953;39;20788;-72
2023/06/14 17:58:03;;;;;;;19.50;18.60;;;23.70;1.00;;;;;;2613120;54;20152;-74
2023/06/14 18:03:51;;;;;;;19.20;18.40;;;23.60;1.00;;;;;;2614521;54;20419;-74
2023/06/14 18:09:39;;;;;;;18.43;17.43;;;23.50;1.00;;;;;;2614563;54;20126;-74
2023/06/14 18:15:26;;;;;;;17.97;17.10;;;23.30;1.00;;;;;;2614226;54;20152;-74
2023/06/14 18:21:14;;;;;;;17.50;16.70;;;23.10;1.00;;;;;;2613993;54;20134;-74
2023/06/14 18:27:04;;;;;;;18.93;18.00;;;23.00;1.00;;;;;;2612766;54;20224;-72
2023/06/14 18:32:51;;;;;;;17.27;16.57;;;23.00;1.00;;;;;;2614880;54;20395;-74
2023/06/14 18:38:39;;;;;;;16.83;16.03;;;22.90;1.00;;;;;;2615764;54;20126;-74
2023/06/14 18:41:56;;;;;;;17.60;16.80;;;22.80;1.00;;;;;;2614679;54;20985;-74
2023/06/14 18:44:22;;;;;;;18.10;17.40;;;22.80;1.00;;;;;;2614222;54;20249;-74
2023/06/14 18:50:10;;;;;;;18.00;16.90;;;22.60;1.00;;;;;;2615153;54;20134;-73
2023/06/14 18:55:58;;;;;;;17.67;16.87;;;22.50;1.00;;;;;;2615240;54;20146;-73
2023/06/14 19:01:45;;;;;;;18.40;17.07;;;22.40;1.00;;;;;;2614252;54;20131;-73
2023/06/14 19:07:33;;;;;;;18.20;17.30;;;22.30;1.00;;;;;;2615313;54;20256;-74
2023/06/14 19:13:20;;;;;;;16.97;16.17;;;22.20;1.00;;;;;;2615335;54;20133;-74
2023/06/14 19:19:08;;;;;;;17.73;17.03;;;22.00;1.00;;;;;;2615019;54;20162;-74
2023/06/14 19:24:56;;;;;;;18.57;17.50;;;21.90;1.00;;;;;;2615662;54;20178;-73
2023/06/14 19:30:44;;;;;;;17.77;16.97;;;21.70;1.00;;;;;;2615386;46;21292;-74
2023/06/14 19:33:47;;;;;;;19.20;18.20;;;21.60;1.00;;;;;;2614315;54;20424;-74
2023/06/14 19:36:16;;;;;;;18.33;17.47;;;21.60;1.00;;;;;;2614025;47;20166;-74
2023/06/14 19:52:10;;;;;;;17.70;16.90;;;21.30;1.00;;;;;;2614265;54;20511;-74
2023/06/14 19:57:58;;;;;;;18.30;17.50;;;21.10;1.00;;;;;;2614348;54;20142;-74
2023/06/14 20:03:46;;;;;;;18.90;17.90;;;20.90;1.00;;;;;;2612865;54;20135;-73
2023/06/14 20:15:33;;;;;;;17.00;16.20;;;20.50;3.00;;;;;;2596144;54;20448;-77
2023/06/14 20:17:58;;;;;;;17.83;16.93;;;20.40;2.80;;;;;;2615604;51;20420;-77
2023/06/14 20:23:47;;;;;;;18.20;17.30;;;20.30;4.70;;;;;;2616296;46;20391;-77
2023/06/14 20:29:35;;;;;;;17.40;16.60;;;20.10;5.60;;;;;;2614645;54;20178;-76
2023/06/14 20:35:23;;;;;;;17.53;16.63;;;20.20;6.40;;;;;;2613576;39;20511;-77
2023/06/14 20:41:11;;;;;;;17.27;16.53;;;20.20;6.60;;;;;;2614019;54;20435;-76
2023/06/14 20:46:59;;;;;;;18.93;17.93;;;19.90;8.20;;;;;;2615592;54;20134;-78
2023/06/14 20:52:48;;;;;;;18.40;17.30;;;19.90;9.50;;;;;;2614548;54;20676;-77
2023/06/14 20:58:36;;;;;;;17.23;16.53;;;19.50;13.40;;;;;;2615776;54;20400;-77
2023/06/14 21:04:25;;;;;;;18.63;17.67;;;19.40;14.90;;;;;;2618410;54;20423;-85
2023/06/14 21:10:13;;;;;;;17.43;16.57;;;19.30;17.90;;;;;;2622273;54;20408;-84
2023/06/14 21:16:09;;;;;;;17.33;16.50;;;19.10;21.50;;;;;;2618747;54;20133;-84
2023/06/14 21:21:56;;;;;;;17.50;16.60;;;19.00;24.70;;;;;;2618007;54;20228;-85
2023/06/14 21:27:44;;;;;;;18.80;17.93;;;18.80;30.20;;;;;;2618115;54;20409;-84
2023/06/14 21:33:33;;;;;;;17.47;16.57;;;18.40;41.50;;;;;;2617586;54;20129;-85
2023/06/14 21:39:20;;;;;;;18.57;17.67;;;18.20;55.20;;;;;;2617365;54;20390;-84
2023/06/14 21:45:10;;;;;;;17.77;16.97;;;18.20;64.40;;;;;;2617895;54;21005;-85
2023/06/14 21:50:57;;;;;;;18.40;17.30;;;18.00;80.20;;;;;;2624353;54;20424;-89
2023/06/14 21:56:46;;;;;;;17.23;16.10;;;17.90;97.10;;;;;;2627958;54;20403;-88
2023/06/14 22:02:34;;;;;;;17.80;16.83;;;17.60;99.90;;;;;;2627706;54;20392;-88
2023/06/14 22:08:24;;;;;;;18.00;17.20;;;17.40;99.90;;;;;;2624171;54;20122;-88
2023/06/14 22:17:40;;;;;;;17.10;16.30;;;17.00;99.90;;;;;;2625557;54;20464;-89
2023/06/14 22:29:36;;;;;;;17.30;16.40;;;16.90;99.90;;;;;;2623193;54;20391;-91
2023/06/14 22:35:24;;;;;;;16.50;15.70;;;16.70;99.90;;;;;;2622109;54;20427;-90
2023/06/14 22:41:12;;;;;;;17.30;16.30;;;16.50;99.90;;;;;;2621295;54;20129;-89
2023/06/14 22:47:01;;;;;;;17.23;16.10;;;16.50;99.90;;;;;;2612916;39;20567;-78
2023/06/14 22:52:50;;;;;;;17.73;16.63;;;16.40;99.90;;;;;;2611575;54;20431;-76
2023/06/14 22:58:39;;;;;;;15.90;15.20;;;16.30;99.90;;;;;;2610847;54;20378;-78
2023/06/14 23:04:27;;;;;;;17.10;16.10;;;16.20;99.90;;;;;;2611524;54;20442;-77
2023/06/14 23:10:17;;;;;;;16.10;15.30;;;16.20;99.90;;;;;;2610418;39;20512;-77
2023/06/14 23:16:07;;;;;;;16.27;15.47;;;16.30;99.90;;;;;;2623829;54;20442;-88
2023/06/14 23:19:25;;;;;;;17.73;16.63;;;16.20;99.90;;;;;;2623442;54;20472;-89
2023/06/14 23:25:13;;;;;;;17.60;16.23;;;16.30;99.90;;;;;;2622311;54;20426;-88
2023/06/14 23:31:07;;;;;;;17.30;16.33;;;16.20;99.90;;;;;;2621437;54;20399;-89
2023/06/14 23:36:55;;;;;;;17.10;15.93;;;16.10;99.90;;;;;;2623657;54;20419;-90
2023/06/14 23:42:43;;;;;;;16.37;15.40;;;16.00;99.90;;;;;;2624288;54;20434;-88
2023/06/14 23:48:31;;;;;;;16.20;15.27;;;15.80;99.90;;;;;;2625102;39;20531;-89
2023/06/14 23:54:21;;;;;;;14.80;14.10;;;15.80;99.90;;;;;;2612118;54;20139;-77
